Time;durP1;ratioP1;P1;durP2;ratioP2;P2;SDS_P1;SDS_P2;PMS_P1;PMS_P2;Temp;Humidity;BMP_temperature;BMP_pressure;BME280_temperature;BME280_humidity;BME280_pressure;Samples;Min_cycle;Max_cycle;Signal;HPM_P1;HPM_P2
2022/07/09 00:02:16;;;;;;;17.45;4.97;;;17.00;99.90;;;;;;6069208;23;20466;-94
2022/07/09 00:04:42;;;;;;;13.85;4.53;;;17.00;99.90;;;;;;6068502;23;20019;-95
2022/07/09 00:07:08;;;;;;;11.55;4.10;;;17.10;99.90;;;;;;6068753;23;20029;-94
2022/07/09 00:09:33;;;;;;;22.58;5.10;;;17.00;99.90;;;;;;6068460;23;20016;-93
2022/07/09 00:11:59;;;;;;;17.25;5.20;;;17.00;99.90;;;;;;6069391;23;20026;-94
2022/07/09 00:14:25;;;;;;;15.35;4.97;;;17.10;99.90;;;;;;6068542;23;20014;-94
2022/07/09 00:16:50;;;;;;;12.77;5.22;;;17.10;99.90;;;;;;6069660;23;20018;-94
2022/07/09 00:19:16;;;;;;;18.20;5.68;;;17.10;99.90;;;;;;6069099;23;20018;-95
2022/07/09 00:21:42;;;;;;;16.58;5.60;;;17.10;99.90;;;;;;6068308;23;20546;-94
2022/07/09 00:24:08;;;;;;;13.90;4.63;;;17.10;99.90;;;;;;6069154;23;20023;-94
2022/07/09 00:26:34;;;;;;;22.13;5.45;;;17.10;99.90;;;;;;6070545;23;20024;-93
2022/07/09 00:29:00;;;;;;;14.07;5.75;;;17.10;99.90;;;;;;6069664;23;20468;-94
2022/07/09 00:31:25;;;;;;;16.20;5.60;;;17.10;99.90;;;;;;6067526;23;20028;-94
2022/07/09 00:33:51;;;;;;;12.63;4.97;;;17.10;99.90;;;;;;6069500;23;20035;-94
2022/07/09 00:36:17;;;;;;;12.88;5.45;;;17.00;99.90;;;;;;6068304;23;20384;-94
2022/07/09 00:38:42;;;;;;;15.93;5.43;;;17.10;99.90;;;;;;6068163;23;20014;-94
2022/07/09 00:41:08;;;;;;;11.88;5.30;;;17.10;99.90;;;;;;6069397;23;20033;-94
2022/07/09 00:43:34;;;;;;;14.02;5.40;;;17.10;99.90;;;;;;6070207;23;20056;-94
2022/07/09 00:45:59;;;;;;;17.20;6.05;;;17.10;99.90;;;;;;6068295;23;20045;-94
2022/07/09 00:48:25;;;;;;;19.08;5.55;;;17.10;99.90;;;;;;6068791;23;20075;-93
2022/07/09 00:50:51;;;;;;;16.00;5.20;;;17.00;99.90;;;;;;6067832;23;20339;-94
2022/07/09 00:53:20;;;;;;;13.77;5.57;;;17.00;99.90;;;;;;6068203;23;20014;-94
2022/07/09 00:55:47;;;;;;;16.95;5.85;;;17.00;99.90;;;;;;6068538;23;20117;-94
2022/07/09 00:58:16;;;;;;;17.33;5.90;;;17.00;99.90;;;;;;6068596;23;20021;-94
2022/07/09 01:00:43;;;;;;;19.52;5.78;;;17.00;99.90;;;;;;6068104;23;20018;-94
2022/07/09 01:03:08;;;;;;;15.20;5.05;;;17.10;99.90;;;;;;6070609;23;20026;-95
2022/07/09 01:05:35;;;;;;;19.02;6.15;;;17.00;99.90;;;;;;6067557;23;20022;-94
2022/07/09 01:08:04;;;;;;;24.33;6.97;;;17.00;99.90;;;;;;6068662;23;20018;-93
2022/07/09 01:10:30;;;;;;;19.60;6.15;;;17.10;99.90;;;;;;6068712;23;20058;-93
2022/07/09 01:12:56;;;;;;;19.92;6.10;;;17.00;99.90;;;;;;6068108;23;20025;-95
2022/07/09 01:15:22;;;;;;;16.73;6.28;;;17.00;99.90;;;;;;6068685;23;20018;-93
2022/07/09 01:17:47;;;;;;;18.50;5.97;;;17.00;99.90;;;;;;6068772;23;20442;-94
2022/07/09 01:20:13;;;;;;;18.45;5.80;;;17.00;99.90;;;;;;6067085;23;20030;-94
2022/07/09 01:22:41;;;;;;;15.25;5.75;;;17.00;99.90;;;;;;6068892;23;20018;-94
2022/07/09 01:25:09;;;;;;;13.55;5.40;;;17.00;99.90;;;;;;6068429;23;20014;-93
2022/07/09 01:27:36;;;;;;;16.48;5.75;;;17.00;99.90;;;;;;6068091;23;20025;-94
2022/07/09 01:30:04;;;;;;;14.50;5.85;;;17.00;99.90;;;;;;6068584;23;20079;-94
2022/07/09 01:32:30;;;;;;;17.60;5.82;;;17.00;99.90;;;;;;6070887;23;20048;-94
2022/07/09 01:34:55;;;;;;;16.42;5.43;;;16.90;99.90;;;;;;6069188;23;20057;-95
2022/07/09 01:37:21;;;;;;;21.52;7.05;;;16.90;99.90;;;;;;6068639;23;20029;-93
2022/07/09 01:39:52;;;;;;;20.25;6.25;;;16.90;99.90;;;;;;6069223;23;20065;-93
2022/07/09 01:42:19;;;;;;;17.05;5.60;;;16.90;99.90;;;;;;6068129;23;20057;-94
2022/07/09 01:44:48;;;;;;;18.42;5.90;;;16.80;99.90;;;;;;6069044;23;20016;-93
2022/07/09 01:47:15;;;;;;;13.75;5.90;;;16.90;99.90;;;;;;6068836;23;20506;-94
2022/07/09 01:49:41;;;;;;;14.02;5.97;;;16.90;99.90;;;;;;6067249;23;20022;-94
2022/07/09 01:52:07;;;;;;;28.60;7.82;;;16.90;99.90;;;;;;6068338;23;20020;-94
2022/07/09 01:54:33;;;;;;;19.73;6.13;;;16.80;99.90;;;;;;6068098;23;20018;-93
2022/07/09 01:56:59;;;;;;;19.10;6.57;;;16.80;99.90;;;;;;6068710;23;20057;-94
2022/07/09 01:59:25;;;;;;;16.90;7.35;;;16.80;99.90;;;;;;6068105;23;20018;-95
2022/07/09 02:01:50;;;;;;;14.27;6.97;;;16.80;99.90;;;;;;6092293;23;20328;-94
2022/07/09 02:04:16;;;;;;;16.20;7.10;;;16.80;99.90;;;;;;6068926;23;20390;-94
2022/07/09 02:06:42;;;;;;;21.73;7.30;;;16.70;99.90;;;;;;6067915;23;20022;-94
2022/07/09 02:09:07;;;;;;;19.63;6.90;;;16.70;99.90;;;;;;6067915;23;20442;-94
2022/07/09 02:11:33;;;;;;;18.85;6.93;;;16.70;99.90;;;;;;6069731;23;20040;-94
2022/07/09 02:13:59;;;;;;;22.83;7.22;;;16.70;99.90;;;;;;6071217;23;20018;-94
2022/07/09 02:16:24;;;;;;;17.42;7.07;;;16.70;99.90;;;;;;6067211;23;20481;-94
2022/07/09 02:18:50;;;;;;;19.10;7.18;;;16.70;99.90;;;;;;6068111;23;20014;-93
2022/07/09 02:21:16;;;;;;;13.32;6.80;;;16.70;99.90;;;;;;6067618;23;20022;-94
2022/07/09 02:23:42;;;;;;;23.63;7.10;;;16.70;99.90;;;;;;6067594;23;20383;-94
2022/07/09 02:26:08;;;;;;;16.40;5.97;;;16.70;99.90;;;;;;6068340;23;20029;-94
2022/07/09 02:28:33;;;;;;;17.52;6.55;;;16.70;99.90;;;;;;6068053;23;20148;-94
2022/07/09 02:30:59;;;;;;;21.45;6.63;;;16.70;99.90;;;;;;6067747;23;20087;-94
2022/07/09 02:33:25;;;;;;;19.48;6.22;;;16.70;99.90;;;;;;6068458;23;20040;-94
2022/07/09 02:35:51;;;;;;;19.83;5.88;;;16.60;99.90;;;;;;6067709;23;20022;-93
2022/07/09 02:38:16;;;;;;;16.67;6.30;;;16.60;99.90;;;;;;6067777;23;20098;-94
2022/07/09 02:40:42;;;;;;;21.48;6.60;;;16.60;99.90;;;;;;6067754;23;20022;-94
2022/07/09 02:43:08;;;;;;;13.55;5.65;;;16.60;99.90;;;;;;6069043;23;20048;-94
2022/07/09 02:45:33;;;;;;;19.90;6.03;;;16.70;99.90;;;;;;6067498;23;20342;-94
2022/07/09 02:47:59;;;;;;;21.48;6.22;;;16.60;99.90;;;;;;6068648;23;20021;-94
2022/07/09 02:50:25;;;;;;;19.67;5.90;;;16.60;99.90;;;;;;6068288;23;20079;-94
2022/07/09 02:52:51;;;;;;;17.52;5.78;;;16.60;99.90;;;;;;6070367;23;20072;-94
2022/07/09 02:55:16;;;;;;;18.77;5.47;;;16.60;99.90;;;;;;6069181;23;20014;-94
2022/07/09 02:57:42;;;;;;;18.33;6.05;;;16.60;99.90;;;;;;6068607;23;20408;-93
2022/07/09 03:00:08;;;;;;;17.52;5.85;;;16.50;99.90;;;;;;6067398;23;20018;-94
2022/07/09 03:02:34;;;;;;;17.90;6.22;;;16.50;99.90;;;;;;6068403;23;20105;-94
2022/07/09 03:05:00;;;;;;;20.13;6.10;;;16.50;99.90;;;;;;6067890;23;20053;-93
2022/07/09 03:07:26;;;;;;;15.35;5.65;;;16.50;99.90;;;;;;6069264;23;20018;-93
2022/07/09 03:09:52;;;;;;;14.68;5.32;;;16.50;99.90;;;;;;6068715;23;20037;-94
2022/07/09 03:12:18;;;;;;;18.05;5.90;;;16.40;99.90;;;;;;6067489;23;20026;-94
2022/07/09 03:14:44;;;;;;;13.38;5.30;;;16.40;99.90;;;;;;6068333;23;20018;-93
2022/07/09 03:17:09;;;;;;;16.20;5.70;;;16.40;99.90;;;;;;6068085;23;20029;-94
2022/07/09 03:19:35;;;;;;;18.42;5.78;;;16.40;99.90;;;;;;6067296;23;20023;-94
2022/07/09 03:22:01;;;;;;;19.80;5.18;;;16.30;99.90;;;;;;6069803;23;20022;-94
2022/07/09 03:24:26;;;;;;;14.02;5.70;;;16.30;99.90;;;;;;6069238;23;20014;-94
2022/07/09 03:26:52;;;;;;;12.07;5.40;;;16.30;99.90;;;;;;6067679;23;20048;-95
2022/07/09 03:29:18;;;;;;;19.83;5.03;;;16.30;99.90;;;;;;6069140;23;20024;-94
2022/07/09 03:31:44;;;;;;;10.98;5.10;;;16.30;99.90;;;;;;6068025;23;20014;-94
2022/07/09 03:34:09;;;;;;;18.30;5.15;;;16.30;99.90;;;;;;6067766;23;20018;-94
2022/07/09 03:36:36;;;;;;;13.43;5.25;;;16.30;99.90;;;;;;6067008;23;20022;-94
2022/07/09 03:39:02;;;;;;;14.98;5.28;;;16.30;99.90;;;;;;6068463;23;20022;-94
2022/07/09 03:41:28;;;;;;;13.10;5.10;;;16.30;99.90;;;;;;6066905;23;20026;-94
2022/07/09 03:43:53;;;;;;;11.38;4.75;;;16.30;99.90;;;;;;6070317;23;20029;-95
2022/07/09 03:46:19;;;;;;;14.73;4.90;;;16.30;99.90;;;;;;6069748;23;20115;-94
2022/07/09 03:48:46;;;;;;;22.45;6.43;;;16.30;99.90;;;;;;6067084;23;20438;-94
2022/07/09 03:51:12;;;;;;;15.68;5.60;;;16.30;99.90;;;;;;6067902;23;20521;-94
2022/07/09 03:53:38;;;;;;;19.08;5.68;;;16.30;99.90;;;;;;6068149;23;20064;-93
2022/07/09 03:56:04;;;;;;;13.10;4.63;;;16.20;99.90;;;;;;6067085;23;20018;-94
2022/07/09 03:58:29;;;;;;;14.95;4.97;;;16.30;99.90;;;;;;6068124;23;20097;-94
2022/07/09 04:00:55;;;;;;;11.20;4.60;;;16.40;99.90;;;;;;6067884;23;20477;-94
2022/07/09 04:03:21;;;;;;;14.85;4.68;;;16.30;99.90;;;;;;6067387;23;20108;-95
2022/07/09 04:05:47;;;;;;;15.32;5.43;;;16.30;99.90;;;;;;6067101;23;20026;-94
2022/07/09 04:08:13;;;;;;;10.18;4.60;;;16.40;99.90;;;;;;6068297;23;20014;-93
2022/07/09 04:10:39;;;;;;;16.42;4.72;;;16.40;99.90;;;;;;6069647;23;20025;-94
2022/07/09 04:13:04;;;;;;;16.17;4.75;;;16.40;99.90;;;;;;6071302;23;20028;-94
2022/07/09 04:15:32;;;;;;;16.67;4.78;;;16.40;99.90;;;;;;6068419;23;20097;-94
2022/07/09 04:17:58;;;;;;;13.98;4.80;;;16.50;99.90;;;;;;6067668;23;20018;-94
2022/07/09 04:20:25;;;;;;;12.40;4.70;;;16.50;99.90;;;;;;6066476;23;20561;-94
2022/07/09 04:22:51;;;;;;;10.27;4.32;;;16.50;99.90;;;;;;6068387;23;20018;-93
2022/07/09 04:25:17;;;;;;;14.45;4.63;;;16.60;99.90;;;;;;6069830;23;20022;-94
2022/07/09 04:27:43;;;;;;;11.40;4.38;;;16.60;99.90;;;;;;6070293;23;20447;-94
2022/07/09 04:30:10;;;;;;;14.75;4.95;;;16.60;99.90;;;;;;6065988;23;20025;-94
2022/07/09 04:32:37;;;;;;;12.93;5.30;;;16.70;99.90;;;;;;6069297;23;20033;-93
2022/07/09 04:35:03;;;;;;;13.27;4.30;;;16.70;99.90;;;;;;6067355;23;20018;-95
2022/07/09 04:37:29;;;;;;;13.93;5.13;;;16.70;99.90;;;;;;6066808;23;20097;-95
2022/07/09 04:39:54;;;;;;;11.20;4.53;;;16.70;99.90;;;;;;6067725;23;20045;-94
2022/07/09 04:42:20;;;;;;;15.35;4.47;;;16.70;99.90;;;;;;6068007;23;20465;-94
2022/07/09 04:44:46;;;;;;;12.98;4.80;;;16.80;99.90;;;;;;6068690;23;20018;-94
2022/07/09 04:47:12;;;;;;;11.68;4.75;;;16.80;99.90;;;;;;6071616;23;20018;-94
2022/07/09 04:49:38;;;;;;;12.43;4.78;;;16.80;99.90;;;;;;6068288;23;20109;-94
2022/07/09 04:52:04;;;;;;;14.48;4.22;;;16.80;99.90;;;;;;6070303;23;20018;-94
2022/07/09 04:54:30;;;;;;;14.65;4.78;;;16.80;99.90;;;;;;6068887;23;20087;-94
2022/07/09 04:56:56;;;;;;;15.13;4.60;;;16.80;99.90;;;;;;6069383;23;20487;-94
2022/07/09 04:59:21;;;;;;;14.45;4.70;;;16.90;99.90;;;;;;6068773;23;20056;-94
2022/07/09 05:01:48;;;;;;;13.50;4.43;;;16.90;99.90;;;;;;6070008;23;20026;-94
2022/07/09 05:04:13;;;;;;;15.90;3.70;;;17.00;99.90;;;;;;6071547;23;20415;-95
2022/07/09 05:06:40;;;;;;;10.32;3.67;;;17.00;99.90;;;;;;6071577;23;20026;-94
2022/07/09 05:09:05;;;;;;;11.63;4.18;;;17.00;99.90;;;;;;6071440;23;20010;-94
2022/07/09 05:11:32;;;;;;;9.43;4.15;;;17.10;99.90;;;;;;6070239;23;20117;-94
2022/07/09 05:13:58;;;;;;;12.02;3.80;;;17.10;99.90;;;;;;6068454;23;20025;-94
2022/07/09 05:16:24;;;;;;;10.60;3.58;;;17.10;99.90;;;;;;6069830;23;20022;-94
2022/07/09 05:18:49;;;;;;;11.73;4.25;;;17.10;99.90;;;;;;6067705;23;20052;-94
2022/07/09 05:21:15;;;;;;;16.77;4.53;;;17.20;99.90;;;;;;6067718;23;20516;-93
2022/07/09 05:23:41;;;;;;;11.32;4.32;;;17.10;99.90;;;;;;6068537;23;20085;-94
2022/07/09 05:26:07;;;;;;;12.15;4.03;;;17.20;99.90;;;;;;6068511;23;20438;-95
2022/07/09 05:28:32;;;;;;;11.65;3.95;;;17.20;99.90;;;;;;6070937;23;20395;-96
2022/07/09 05:30:58;;;;;;;11.95;3.88;;;17.30;99.90;;;;;;6070399;23;20091;-95
2022/07/09 05:33:24;;;;;;;10.13;4.15;;;17.30;99.90;;;;;;6070176;23;20433;-95
2022/07/09 05:35:50;;;;;;;11.25;4.13;;;17.30;99.90;;;;;;6068467;23;20029;-94
2022/07/09 05:38:18;;;;;;;13.85;4.30;;;17.40;99.90;;;;;;6068549;23;20022;-95
2022/07/09 05:40:44;;;;;;;17.13;4.60;;;17.40;99.90;;;;;;6065629;23;20032;-93
2022/07/09 05:43:10;;;;;;;9.77;4.00;;;17.40;99.90;;;;;;6067029;23;20022;-96
2022/07/09 05:45:35;;;;;;;10.80;4.15;;;17.40;99.90;;;;;;6069344;23;20026;-96
2022/07/09 05:48:01;;;;;;;12.80;3.95;;;17.50;99.90;;;;;;6067079;23;20025;-93
2022/07/09 05:50:27;;;;;;;12.30;3.53;;;17.50;99.90;;;;;;6064883;23;20014;-96
2022/07/09 05:52:53;;;;;;;10.57;3.60;;;17.50;99.90;;;;;;6065867;23;20122;-95
2022/07/09 05:55:18;;;;;;;13.98;4.28;;;17.50;99.90;;;;;;6065050;23;20437;-95
2022/07/09 05:57:46;;;;;;;15.98;3.85;;;17.60;99.90;;;;;;6066074;23;20057;-96
2022/07/09 06:00:12;;;;;;;7.50;3.70;;;17.60;99.90;;;;;;6061319;23;20506;-96
2022/07/09 06:02:38;;;;;;;11.60;4.00;;;17.60;99.90;;;;;;6038555;23;20112;-96
2022/07/09 06:05:04;;;;;;;13.70;3.88;;;17.60;99.90;;;;;;6060818;23;20026;-96
2022/07/09 06:07:29;;;;;;;11.50;3.85;;;17.60;99.90;;;;;;6061358;23;20085;-95
2022/07/09 06:09:55;;;;;;;17.90;3.78;;;17.70;99.90;;;;;;6060785;23;20085;-95
2022/07/09 06:12:21;;;;;;;9.70;3.38;;;17.70;99.90;;;;;;6060386;23;20061;-96
2022/07/09 06:14:46;;;;;;;12.63;3.03;;;17.80;99.90;;;;;;6060443;23;20023;-96
2022/07/09 06:17:12;;;;;;;9.52;3.22;;;17.80;99.90;;;;;;6060808;23;20097;-96
2022/07/09 06:19:38;;;;;;;10.63;2.88;;;17.90;99.90;;;;;;6060693;23;20027;-96
2022/07/09 06:22:06;;;;;;;10.85;3.30;;;17.90;99.90;;;;;;6062913;23;20074;-96
2022/07/09 06:24:32;;;;;;;9.82;3.53;;;17.90;99.90;;;;;;6064566;23;20029;-95
2022/07/09 06:26:58;;;;;;;9.18;2.92;;;18.00;99.90;;;;;;6065356;23;20022;-95
2022/07/09 06:29:23;;;;;;;11.15;3.30;;;18.00;99.90;;;;;;6062125;23;20023;-94
2022/07/09 06:31:49;;;;;;;15.27;3.63;;;18.00;99.90;;;;;;6063868;23;20451;-95
2022/07/09 06:34:15;;;;;;;9.70;2.88;;;18.10;99.90;;;;;;6063245;23;20108;-94
2022/07/09 06:36:44;;;;;;;9.75;3.03;;;18.10;99.90;;;;;;6063019;23;20019;-96
2022/07/09 06:42:02;;;;;;;8.95;2.78;;;18.10;99.90;;;;;;6064120;23;20023;-95
2022/07/09 06:44:28;;;;;;;8.90;2.78;;;18.10;99.90;;;;;;6043492;23;20030;-93
2022/07/09 06:46:54;;;;;;;11.65;2.85;;;18.10;99.90;;;;;;6064864;23;20033;-94
2022/07/09 06:49:19;;;;;;;11.45;2.60;;;18.10;99.90;;;;;;6063334;23;20068;-94
2022/07/09 06:51:45;;;;;;;10.52;2.67;;;18.10;99.90;;;;;;6063559;23;20022;-94
2022/07/09 06:54:11;;;;;;;8.32;2.72;;;18.10;99.90;;;;;;6065312;23;20014;-94
2022/07/09 06:56:36;;;;;;;10.15;3.05;;;18.00;99.90;;;;;;6064799;23;20105;-93
2022/07/09 06:59:02;;;;;;;13.90;2.83;;;18.00;99.90;;;;;;6069080;22;20422;-94
2022/07/09 07:01:28;;;;;;;9.77;2.88;;;18.10;99.90;;;;;;6072437;23;20455;-90
2022/07/09 07:03:54;;;;;;;7.93;2.20;;;18.20;99.90;;;;;;6072549;23;20022;-94
2022/07/09 07:06:20;;;;;;;8.63;2.38;;;18.30;99.90;;;;;;6069466;23;20105;-95
2022/07/09 07:08:45;;;;;;;10.68;2.30;;;18.40;99.90;;;;;;6070464;23;20435;-95
2022/07/09 07:11:11;;;;;;;8.23;2.50;;;18.50;99.90;;;;;;6067202;23;20029;-95
2022/07/09 07:13:37;;;;;;;6.80;2.10;;;18.50;99.90;;;;;;6079692;23;20022;-94
2022/07/09 07:16:03;;;;;;;12.65;2.53;;;18.50;99.90;;;;;;6069672;23;20100;-95
2022/07/09 07:18:28;;;;;;;8.73;1.83;;;18.60;99.90;;;;;;6070394;23;20022;-95
2022/07/09 07:20:54;;;;;;;9.15;2.25;;;18.70;99.90;;;;;;6086436;23;20061;-95
2022/07/09 07:23:20;;;;;;;10.32;1.83;;;18.90;99.90;;;;;;6094092;23;20070;-95
2022/07/09 07:25:45;;;;;;;9.48;2.10;;;19.00;99.90;;;;;;6093411;23;20010;-93
2022/07/09 07:28:11;;;;;;;11.02;2.47;;;19.00;99.90;;;;;;6093092;23;20002;-94
2022/07/09 07:30:37;;;;;;;7.07;1.77;;;19.00;99.90;;;;;;6089763;23;20022;-95
2022/07/09 07:33:02;;;;;;;10.30;1.60;;;19.10;99.90;;;;;;6080021;23;20029;-95
2022/07/09 07:35:28;;;;;;;6.97;1.60;;;19.20;99.90;;;;;;6092909;23;20022;-93
2022/07/09 07:37:54;;;;;;;9.18;2.40;;;19.20;99.90;;;;;;6093639;23;20048;-94
2022/07/09 07:40:20;;;;;;;12.07;1.85;;;19.20;99.90;;;;;;6092267;23;20132;-95
2022/07/09 07:42:45;;;;;;;9.75;1.73;;;19.30;99.90;;;;;;6092111;23;20022;-95
2022/07/09 07:45:11;;;;;;;6.47;1.55;;;19.40;99.90;;;;;;6116543;23;20010;-94
2022/07/09 07:47:37;;;;;;;7.25;1.40;;;19.50;99.90;;;;;;6093807;23;20066;-94
2022/07/09 07:50:04;;;;;;;16.85;1.45;;;19.60;99.90;;;;;;6075959;23;20098;-95
2022/07/09 07:52:30;;;;;;;9.32;1.50;;;19.70;99.90;;;;;;6068869;23;20010;-94
2022/07/09 07:54:55;;;;;;;10.98;1.63;;;19.70;99.90;;;;;;6068070;23;20026;-95
2022/07/09 07:57:21;;;;;;;6.68;1.27;;;19.80;99.90;;;;;;6068759;23;20025;-94
2022/07/09 07:59:47;;;;;;;7.45;1.67;;;19.90;99.90;;;;;;6068805;23;20014;-94
2022/07/09 08:02:13;;;;;;;8.35;1.58;;;19.90;99.90;;;;;;6067807;23;20096;-94
2022/07/09 08:04:39;;;;;;;12.15;2.08;;;20.00;99.90;;;;;;6067966;23;20025;-94
2022/07/09 08:07:05;;;;;;;7.20;1.25;;;19.90;99.90;;;;;;6067720;23;20101;-95
2022/07/09 08:09:32;;;;;;;7.30;1.70;;;19.90;99.90;;;;;;6069739;23;20480;-95
2022/07/09 08:11:59;;;;;;;6.50;1.67;;;19.70;99.90;;;;;;6072038;23;20053;-94
2022/07/09 08:14:24;;;;;;;7.70;1.50;;;19.70;99.90;;;;;;6066259;23;20018;-95
2022/07/09 08:16:50;;;;;;;13.90;1.98;;;19.60;99.90;;;;;;6068928;23;20101;-94
2022/07/09 08:19:16;;;;;;;7.20;1.20;;;19.70;99.90;;;;;;6070487;23;20025;-95
2022/07/09 08:21:42;;;;;;;6.68;1.45;;;19.70;99.90;;;;;;6067730;23;20018;-95
2022/07/09 08:24:08;;;;;;;11.15;1.77;;;19.80;99.90;;;;;;6068859;23;20014;-95
2022/07/09 08:26:33;;;;;;;7.70;1.40;;;19.80;99.90;;;;;;6070464;23;20021;-94
2022/07/09 08:28:59;;;;;;;6.65;1.00;;;20.10;99.90;;;;;;6068551;23;20385;-93
2022/07/09 08:31:25;;;;;;;8.48;1.27;;;20.30;99.90;;;;;;6069349;23;20052;-94
2022/07/09 08:33:51;;;;;;;10.10;1.30;;;20.30;99.90;;;;;;6073262;23;20059;-95
2022/07/09 08:36:18;;;;;;;8.27;1.40;;;20.20;99.90;;;;;;6068034;23;20066;-93
2022/07/09 08:38:44;;;;;;;8.27;1.23;;;20.30;99.90;;;;;;6070571;23;20544;-94
2022/07/09 08:41:09;;;;;;;12.65;1.70;;;20.40;99.90;;;;;;6069326;23;20025;-94
2022/07/09 08:43:37;;;;;;;9.95;1.10;;;20.60;99.90;;;;;;6070349;23;20076;-95
2022/07/09 08:46:04;;;;;;;9.77;1.60;;;20.50;99.90;;;;;;6072035;23;20065;-94
2022/07/09 08:51:54;;;;;;;9.95;2.15;;;20.40;99.90;;;;;;6134828;23;20022;-95
2022/07/09 08:54:20;;;;;;;11.65;1.70;;;20.00;99.90;;;;;;6072284;23;20029;-96
2022/07/09 08:56:46;;;;;;;8.50;1.75;;;19.90;99.90;;;;;;6068685;23;20029;-95
2022/07/09 08:59:12;;;;;;;8.48;1.30;;;20.00;99.90;;;;;;6070897;22;20029;-96
2022/07/09 09:01:38;;;;;;;9.52;1.42;;;20.30;99.90;;;;;;6068864;23;20414;-95
2022/07/09 09:04:05;;;;;;;11.10;1.70;;;20.70;99.90;;;;;;6068638;23;20470;-96
2022/07/09 09:06:37;;;;;;;9.68;1.65;;;20.70;99.90;;;;;;6068282;23;20025;-96
2022/07/09 09:09:08;;;;;;;12.35;1.88;;;20.60;99.90;;;;;;6069821;23;20311;-95
2022/07/09 09:11:37;;;;;;;10.93;1.52;;;20.40;99.90;;;;;;6069195;23;20060;-95
2022/07/09 09:14:03;;;;;;;8.18;1.77;;;20.10;99.90;;;;;;6069424;23;20143;-96
2022/07/09 09:16:42;;;;;;;9.20;1.60;;;19.90;99.90;;;;;;6071219;23;20022;-95
2022/07/09 09:19:12;;;;;;;7.97;1.30;;;20.00;99.90;;;;;;6068401;23;20021;-95
2022/07/09 09:21:38;;;;;;;11.88;1.40;;;20.30;99.90;;;;;;6068139;23;20459;-96
2022/07/09 09:24:04;;;;;;;12.68;1.63;;;20.30;99.90;;;;;;6072603;23;20029;-95
2022/07/09 09:26:30;;;;;;;8.20;1.23;;;20.50;99.90;;;;;;6068438;23;20021;-95
2022/07/09 09:28:59;;;;;;;7.75;1.38;;;20.70;99.90;;;;;;6069523;23;20028;-95
2022/07/09 09:31:27;;;;;;;4.90;0.95;;;20.90;99.90;;;;;;6068895;23;20101;-94
2022/07/09 09:33:56;;;;;;;7.15;1.30;;;20.90;99.90;;;;;;6072677;23;20021;-94
2022/07/09 09:36:37;;;;;;;8.02;1.40;;;20.80;99.90;;;;;;6069507;23;20290;-94
2022/07/09 09:39:18;;;;;;;8.25;1.77;;;20.60;99.90;;;;;;6093551;23;20022;-94
2022/07/09 09:41:47;;;;;;;8.40;1.00;;;20.50;99.90;;;;;;6068554;23;20022;-94
2022/07/09 09:44:17;;;;;;;7.78;1.27;;;20.50;99.90;;;;;;6068992;23;20056;-94
2022/07/09 09:46:44;;;;;;;8.48;1.48;;;20.60;99.90;;;;;;6069585;23;20442;-94
2022/07/09 09:49:14;;;;;;;7.22;1.25;;;20.60;99.90;;;;;;6069314;23;20053;-94
2022/07/09 09:51:48;;;;;;;8.57;1.30;;;20.60;99.90;;;;;;6069112;23;20022;-94
2022/07/09 09:54:15;;;;;;;6.32;1.75;;;20.70;99.90;;;;;;6067800;23;20320;-94
2022/07/09 09:56:41;;;;;;;9.48;1.42;;;20.70;99.90;;;;;;6069595;23;20057;-94
2022/07/09 09:59:07;;;;;;;6.22;1.40;;;20.90;99.90;;;;;;6068361;22;20469;-94
2022/07/09 10:01:33;;;;;;;5.25;1.25;;;21.00;99.90;;;;;;6068990;23;20346;-96
2022/07/09 10:04:00;;;;;;;6.68;1.17;;;21.20;99.90;;;;;;6070273;23;20028;-94
2022/07/09 10:06:26;;;;;;;6.25;1.17;;;21.30;99.90;;;;;;6069939;23;20022;-95
2022/07/09 10:08:54;;;;;;;9.95;1.48;;;21.40;99.90;;;;;;6068159;23;20018;-94
2022/07/09 10:11:20;;;;;;;8.68;1.17;;;21.20;99.90;;;;;;6068103;23;20022;-95
2022/07/09 10:13:55;;;;;;;8.13;1.77;;;21.10;99.90;;;;;;6068937;23;20014;-94
2022/07/09 10:16:36;;;;;;;11.60;2.95;;;21.20;99.90;;;;;;6068268;23;20361;-96
2022/07/09 10:19:02;;;;;;;10.13;1.63;;;21.40;99.90;;;;;;6071615;23;20493;-95
2022/07/09 10:21:34;;;;;;;9.18;1.92;;;21.20;99.90;;;;;;6067197;23;20056;-95
2022/07/09 10:24:00;;;;;;;9.33;1.40;;;20.80;99.90;;;;;;6070075;23;20018;-95
2022/07/09 10:26:46;;;;;;;8.93;1.38;;;20.40;99.90;;;;;;6068512;23;20415;-94
2022/07/09 10:29:26;;;;;;;6.25;1.48;;;20.10;99.90;;;;;;6069103;23;20048;-95
2022/07/09 10:31:56;;;;;;;9.80;1.23;;;19.90;99.90;;;;;;6068916;23;20115;-94
2022/07/09 10:34:31;;;;;;;11.05;1.70;;;19.80;99.90;;;;;;6068252;23;20033;-95
2022/07/09 10:36:59;;;;;;;11.13;2.00;;;19.50;99.90;;;;;;6068761;23;20022;-94
2022/07/09 10:39:25;;;;;;;7.95;1.52;;;19.30;99.90;;;;;;6069801;23;20433;-95
2022/07/09 10:42:19;;;;;;;9.55;2.20;;;19.20;99.90;;;;;;6071137;23;20029;-96
2022/07/09 10:44:45;;;;;;;8.93;1.90;;;19.20;99.90;;;;;;6070821;23;20028;-95
2022/07/09 10:47:12;;;;;;;11.43;1.48;;;19.30;99.90;;;;;;6070464;23;20097;-94
2022/07/09 10:49:38;;;;;;;13.02;1.55;;;19.40;99.90;;;;;;6067086;23;20014;-96
2022/07/09 10:52:06;;;;;;;9.13;1.42;;;19.40;99.90;;;;;;6068735;23;20018;-96
2022/07/09 10:54:32;;;;;;;14.90;1.92;;;19.40;99.90;;;;;;6068625;23;20446;-96
2022/07/09 10:56:58;;;;;;;10.88;1.50;;;19.40;99.90;;;;;;6068223;23;20022;-95
2022/07/09 10:59:25;;;;;;;10.73;1.65;;;19.40;99.90;;;;;;6071789;23;20052;-96
2022/07/09 11:01:51;;;;;;;11.45;1.52;;;19.60;99.90;;;;;;6074228;23;20010;-94
2022/07/09 11:04:25;;;;;;;13.85;1.73;;;19.80;99.90;;;;;;6068192;23;20101;-96
2022/07/09 11:06:51;;;;;;;12.57;1.48;;;19.90;99.90;;;;;;6071140;23;20022;-95
2022/07/09 11:09:17;;;;;;;14.50;2.03;;;19.90;99.90;;;;;;6068888;23;20396;-94
2022/07/09 11:11:44;;;;;;;7.72;1.35;;;19.80;99.90;;;;;;6070473;23;20026;-96
2022/07/09 11:14:10;;;;;;;8.30;1.38;;;19.80;99.90;;;;;;6070895;23;20093;-95
2022/07/09 11:16:37;;;;;;;9.65;1.23;;;19.80;99.90;;;;;;6070562;23;20043;-96
2022/07/09 11:19:16;;;;;;;11.18;1.73;;;19.90;99.90;;;;;;6072843;23;20719;-96
2022/07/09 11:21:43;;;;;;;9.30;1.55;;;20.00;99.90;;;;;;6070125;23;20057;-96
2022/07/09 11:24:14;;;;;;;10.32;1.33;;;20.20;99.90;;;;;;6070624;23;20034;-96
2022/07/09 11:26:41;;;;;;;8.63;1.20;;;20.20;99.90;;;;;;6068915;23;20018;-95
2022/07/09 11:29:08;;;;;;;8.75;1.10;;;20.40;99.90;;;;;;6070561;23;20018;-94
2022/07/09 11:31:35;;;;;;;6.65;1.30;;;20.30;99.90;;;;;;6068592;23;20338;-96
2022/07/09 11:34:11;;;;;;;8.35;1.10;;;20.10;99.90;;;;;;6068260;23;20029;-95
2022/07/09 11:36:40;;;;;;;4.90;0.85;;;19.90;99.90;;;;;;6067606;23;20018;-94
2022/07/09 11:39:06;;;;;;;7.60;1.00;;;19.80;99.90;;;;;;6069270;23;20014;-94
2022/07/09 11:41:44;;;;;;;6.85;1.10;;;19.90;99.90;;;;;;6069973;23;20029;-94
2022/07/09 11:44:18;;;;;;;6.85;1.20;;;19.90;99.90;;;;;;6067730;23;20029;-95
2022/07/09 11:46:44;;;;;;;8.10;1.15;;;20.00;99.90;;;;;;6068912;23;20097;-94
2022/07/09 11:49:15;;;;;;;5.88;0.98;;;20.20;99.90;;;;;;6072634;23;20068;-95
2022/07/09 11:51:42;;;;;;;8.07;0.63;;;20.40;99.90;;;;;;6068504;23;20022;-95
2022/07/09 11:54:08;;;;;;;7.75;1.02;;;20.60;99.90;;;;;;6068818;23;20344;-94
2022/07/09 11:56:43;;;;;;;7.35;1.10;;;20.60;99.90;;;;;;6069329;23;20026;-93
2022/07/09 11:59:09;;;;;;;6.35;1.05;;;20.70;99.90;;;;;;6069364;22;20061;-95
2022/07/09 12:01:36;;;;;;;6.80;1.20;;;20.80;99.90;;;;;;6071598;23;20069;-95
2022/07/09 12:04:01;;;;;;;11.13;1.77;;;20.70;99.90;;;;;;6070099;23;20088;-95
2022/07/09 12:06:27;;;;;;;9.15;1.25;;;20.60;99.90;;;;;;6068396;23;20084;-94
2022/07/09 12:09:05;;;;;;;7.95;1.50;;;20.60;99.90;;;;;;6070556;23;20014;-95
2022/07/09 12:11:31;;;;;;;8.15;0.70;;;20.50;99.90;;;;;;6073691;23;20018;-95
2022/07/09 12:13:57;;;;;;;10.13;1.55;;;20.50;99.90;;;;;;6071177;23;20010;-93
2022/07/09 12:16:24;;;;;;;7.63;0.88;;;20.50;99.90;;;;;;6071845;23;20084;-95
2022/07/09 12:18:49;;;;;;;8.52;1.45;;;20.50;99.90;;;;;;6076904;23;20018;-95
2022/07/09 12:21:15;;;;;;;7.07;0.90;;;20.40;99.90;;;;;;6067891;23;20521;-94
2022/07/09 12:23:41;;;;;;;7.53;1.20;;;20.30;99.90;;;;;;6072013;23;20339;-94
2022/07/09 12:26:07;;;;;;;7.55;1.20;;;20.20;99.90;;;;;;6072548;23;20021;-94
2022/07/09 12:28:32;;;;;;;10.80;1.60;;;20.10;99.90;;;;;;6068827;23;20075;-95
2022/07/09 12:30:58;;;;;;;9.90;1.55;;;20.00;99.90;;;;;;6070597;23;20113;-95
2022/07/09 12:33:24;;;;;;;8.20;1.40;;;20.20;99.90;;;;;;6071931;23;20014;-94
2022/07/09 12:35:49;;;;;;;9.35;1.20;;;20.10;99.90;;;;;;6070260;23;20022;-95
2022/07/09 12:38:15;;;;;;;8.32;1.25;;;19.90;99.90;;;;;;6068682;23;20018;-95
2022/07/09 12:40:41;;;;;;;7.25;1.58;;;20.00;99.90;;;;;;6069087;23;20446;-95
2022/07/09 12:43:07;;;;;;;6.22;1.17;;;20.10;99.90;;;;;;6069461;23;20433;-95
2022/07/09 12:45:32;;;;;;;7.75;1.30;;;20.10;99.90;;;;;;6068890;23;20022;-95